McAdenville, North Carolina
Current Conditions -  °F | °C
As of 8:15 PM on Sunday 23 Nov 2014 (Local Time) from KAKH Reporting Station
Moderate Rain Moderate Rain  
Wind Chill: 61°   Ceiling: 500
Heat Index: 61°   Visibility: 3mi
Dew Point: 59°   Wind: 7mph
Humidity: 93%   Direction: 170°S
Pressure: 29.75"   Gusts: NA
Location:  35.26°N, 81.08°W
Report Text: KAKH 240115Z AUTO 17006KT 3SM RA BR OVC005 16/15 A2975 RMK AO2 P0010 T01610150
Loading
Personal Weather Stations






























Interactive Weather Map New forecast layout! Learn more

10-Day Weather Forecast

Advertisements
Track Severe Weather on mobile